East Charlemont, Massachusetts
Current Conditions -  °F | °C
As of 5:52 PM on Monday 22 Dec 2014 (Local Time) from KAQW Reporting Station
Overcast Overcast  
Wind Chill: 31°   Ceiling: 2200
Heat Index: 37°   Visibility: 10mi
Dew Point: 31°   Wind: 8mph
Humidity: 79%   Direction: 80°E
Pressure: 30.27"   Gusts: NA
Location:  42.6026°N, 72.7442°W
Report Text: KAQW 222252Z AUTO 08007KT 10SM OVC022 03/M01 A3027 RMK AO2 SLP257 T00281006
Loading
Personal Weather Stations






























Interactive Weather Map New forecast layout! Learn more

10-Day Weather Forecast

Advertisements
Track Severe Weather on mobile